Time;durP1;ratioP1;P1;durP2;ratioP2;P2;SDS_P1;SDS_P2;PMS_P1;PMS_P2;Temp;Humidity;BMP_temperature;BMP_pressure;BME280_temperature;BME280_humidity;BME280_pressure;Samples;Min_cycle;Max_cycle;Signal;HPM_P1;HPM_P2
2022/08/30 00:03:05;;;;;;;4.25;3.03;;;15.50;99.90;;;;;;5049587;28;20068;-64
2022/08/30 00:05:31;;;;;;;7.65;3.25;;;15.50;99.90;;;;;;5050089;28;20127;-59
2022/08/30 00:07:57;;;;;;;6.88;2.90;;;15.40;99.90;;;;;;5050211;28;20076;-61
2022/08/30 00:10:24;;;;;;;3.55;2.75;;;15.40;99.90;;;;;;5048337;28;20076;-60
2022/08/30 00:12:50;;;;;;;5.00;2.80;;;15.40;99.90;;;;;;5060740;28;20049;-60
2022/08/30 00:15:17;;;;;;;5.05;2.33;;;15.30;99.90;;;;;;5046985;28;20049;-60
2022/08/30 00:17:44;;;;;;;3.40;2.13;;;15.30;99.90;;;;;;5048589;28;20061;-61
2022/08/30 00:20:17;;;;;;;2.83;2.25;;;15.30;99.90;;;;;;5049130;28;20122;-60
2022/08/30 00:22:43;;;;;;;3.15;2.10;;;15.20;99.90;;;;;;5049310;28;20118;-61
2022/08/30 00:25:11;;;;;;;2.75;2.25;;;15.30;99.90;;;;;;5031682;28;20048;-60
2022/08/30 00:27:37;;;;;;;3.60;2.42;;;15.20;99.90;;;;;;5049642;28;20456;-60
2022/08/30 00:30:03;;;;;;;3.47;2.42;;;15.20;99.90;;;;;;5049940;28;20102;-60
2022/08/30 00:32:29;;;;;;;3.70;2.13;;;15.10;99.90;;;;;;5052384;28;20048;-60
2022/08/30 00:34:55;;;;;;;2.97;1.98;;;15.10;99.90;;;;;;5048739;28;20044;-61
2022/08/30 00:37:20;;;;;;;6.60;2.10;;;15.10;99.90;;;;;;5047799;28;20041;-60
2022/08/30 00:39:47;;;;;;;2.55;2.00;;;15.10;99.90;;;;;;5053831;28;20041;-60
2022/08/30 00:42:13;;;;;;;4.35;2.25;;;15.10;99.90;;;;;;5053047;28;20414;-60
2022/08/30 00:44:40;;;;;;;3.28;2.17;;;15.00;99.90;;;;;;5053623;28;20452;-60
2022/08/30 00:47:06;;;;;;;3.80;2.35;;;15.00;99.90;;;;;;5053500;28;20073;-60
2022/08/30 00:49:35;;;;;;;4.15;2.22;;;15.00;99.90;;;;;;5052946;28;20044;-60
2022/08/30 00:52:01;;;;;;;2.55;2.05;;;15.00;99.90;;;;;;5066064;28;20041;-60
2022/08/30 00:54:29;;;;;;;3.83;2.55;;;14.90;99.90;;;;;;5052555;28;20102;-62
2022/08/30 00:56:56;;;;;;;3.67;2.50;;;15.00;99.90;;;;;;5053066;28;20338;-61
2022/08/30 00:59:24;;;;;;;2.67;2.10;;;15.00;99.90;;;;;;5052052;28;20564;-60
2022/08/30 01:01:50;;;;;;;3.67;2.60;;;15.00;99.90;;;;;;5053804;28;20440;-61
2022/08/30 01:04:20;;;;;;;4.20;2.20;;;15.00;99.90;;;;;;5051707;28;20049;-59
2022/08/30 01:06:46;;;;;;;3.28;2.50;;;14.90;99.90;;;;;;5052086;28;20076;-59
2022/08/30 01:09:13;;;;;;;7.10;2.88;;;14.90;99.90;;;;;;5052724;28;20116;-63
2022/08/30 01:11:41;;;;;;;3.28;2.53;;;14.90;99.90;;;;;;5054084;28;20098;-61
2022/08/30 01:14:10;;;;;;;4.28;2.40;;;14.90;99.90;;;;;;5051513;28;20098;-59
2022/08/30 01:16:38;;;;;;;5.18;2.70;;;14.90;99.90;;;;;;5052496;28;20052;-60
2022/08/30 01:19:06;;;;;;;5.30;2.65;;;14.90;99.90;;;;;;5051179;28;20111;-61
2022/08/30 01:21:45;;;;;;;3.92;2.67;;;14.90;99.90;;;;;;5050972;28;20594;-60
2022/08/30 01:24:11;;;;;;;3.90;2.70;;;14.90;99.90;;;;;;5055237;28;20041;-59
2022/08/30 01:26:38;;;;;;;3.72;2.50;;;14.90;99.90;;;;;;5052664;28;20098;-59
2022/08/30 01:29:09;;;;;;;4.63;2.88;;;14.90;99.90;;;;;;5052696;28;20114;-59
2022/08/30 01:31:35;;;;;;;5.60;3.00;;;14.90;99.90;;;;;;5059636;28;20118;-61
2022/08/30 01:34:06;;;;;;;3.70;2.60;;;14.90;99.90;;;;;;5055889;28;20064;-60
2022/08/30 01:36:37;;;;;;;4.72;3.05;;;15.00;99.90;;;;;;5050938;28;20533;-60
2022/08/30 01:39:04;;;;;;;3.47;2.47;;;14.90;99.90;;;;;;5050953;28;20568;-60
2022/08/30 01:41:33;;;;;;;4.05;2.90;;;14.90;99.90;;;;;;5051928;28;20096;-61
2022/08/30 01:44:01;;;;;;;7.60;2.70;;;15.00;99.90;;;;;;5038256;28;20111;-60
2022/08/30 01:46:35;;;;;;;3.55;2.70;;;15.00;99.90;;;;;;5051603;28;20073;-60
2022/08/30 01:49:02;;;;;;;;;;;15.00;99.90;;;;;;5040189;28;20071;-60
2022/08/30 01:51:29;;;;;;;4.88;2.80;;;15.00;99.90;;;;;;5050951;28;19960;-61
2022/08/30 01:53:55;;;;;;;4.75;2.75;;;15.00;99.90;;;;;;5053278;28;20072;-61
2022/08/30 01:56:23;;;;;;;5.28;2.70;;;15.00;99.90;;;;;;5082365;28;20057;-60
2022/08/30 01:58:49;;;;;;;3.53;2.88;;;15.00;99.90;;;;;;5084434;28;20483;-61
2022/08/30 02:01:18;;;;;;;4.50;3.03;;;15.00;99.90;;;;;;5051806;28;20037;-60
2022/08/30 02:03:44;;;;;;;5.05;2.70;;;15.00;99.90;;;;;;5051462;28;20041;-60
2022/08/30 02:06:13;;;;;;;5.50;3.17;;;15.00;99.90;;;;;;5049085;28;20118;-61
2022/08/30 02:08:40;;;;;;;4.55;2.65;;;15.00;99.90;;;;;;5051085;28;20048;-61
2022/08/30 02:11:08;;;;;;;6.07;3.00;;;15.00;99.90;;;;;;5051855;28;20434;-60
2022/08/30 02:13:36;;;;;;;6.03;3.10;;;15.00;99.90;;;;;;5051055;28;20045;-61
2022/08/30 02:16:02;;;;;;;6.85;3.20;;;15.10;99.90;;;;;;5052756;28;20037;-61
2022/08/30 02:18:28;;;;;;;4.88;3.38;;;15.00;99.90;;;;;;5079724;28;20142;-60
2022/08/30 02:20:54;;;;;;;4.68;2.90;;;15.00;99.90;;;;;;5050431;28;20552;-60
2022/08/30 02:23:20;;;;;;;4.72;3.30;;;15.10;99.90;;;;;;5034110;28;20080;-63
2022/08/30 02:25:46;;;;;;;4.03;2.83;;;15.00;99.90;;;;;;5060786;28;20056;-59
2022/08/30 02:28:14;;;;;;;5.10;2.90;;;15.00;99.90;;;;;;5051536;28;20080;-60
2022/08/30 02:30:41;;;;;;;5.70;3.20;;;15.00;99.90;;;;;;5051205;28;20368;-60
2022/08/30 02:33:07;;;;;;;5.20;3.40;;;15.00;99.90;;;;;;5066835;28;20041;-60
2022/08/30 02:35:33;;;;;;;4.72;2.90;;;15.00;99.90;;;;;;5053420;28;20060;-60
2022/08/30 02:37:58;;;;;;;4.50;2.80;;;14.90;99.90;;;;;;5052621;28;20049;-59
2022/08/30 02:40:24;;;;;;;4.85;3.03;;;14.90;99.90;;;;;;5051084;28;20100;-60
2022/08/30 02:42:50;;;;;;;3.63;2.83;;;14.90;99.90;;;;;;5050192;28;20045;-59
2022/08/30 02:45:16;;;;;;;3.65;2.60;;;14.90;99.90;;;;;;5051685;28;20562;-60
2022/08/30 02:47:42;;;;;;;4.57;2.70;;;15.00;99.90;;;;;;5051523;28;20049;-60
2022/08/30 02:50:08;;;;;;;3.78;2.60;;;14.80;99.90;;;;;;5051239;28;20049;-60
2022/08/30 02:52:37;;;;;;;3.85;2.78;;;14.80;99.90;;;;;;5050894;28;20110;-60
2022/08/30 02:55:05;;;;;;;6.60;2.97;;;14.80;99.90;;;;;;5050886;28;20052;-61
2022/08/30 02:57:31;;;;;;;5.47;2.67;;;14.80;99.90;;;;;;5052924;28;20118;-60
2022/08/30 02:59:58;;;;;;;5.82;3.58;;;14.80;99.90;;;;;;5050366;28;20065;-60
2022/08/30 03:02:24;;;;;;;4.85;3.50;;;14.80;99.90;;;;;;5050499;28;20041;-61
2022/08/30 03:04:50;;;;;;;5.88;3.90;;;14.80;99.90;;;;;;5050470;28;20076;-60
2022/08/30 03:07:16;;;;;;;5.43;4.22;;;14.80;99.90;;;;;;5050671;28;20044;-61
2022/08/30 03:09:42;;;;;;;9.75;5.22;;;14.80;99.90;;;;;;5049209;28;20044;-60
2022/08/30 03:12:09;;;;;;;9.93;5.13;;;14.90;99.90;;;;;;5050514;28;20045;-61
2022/08/30 03:14:36;;;;;;;11.55;5.88;;;14.90;99.90;;;;;;5048934;28;20044;-60
2022/08/30 03:17:06;;;;;;;13.52;7.00;;;14.90;99.90;;;;;;5052616;28;20482;-60
2022/08/30 03:19:34;;;;;;;10.05;6.53;;;14.90;99.90;;;;;;5043311;28;20059;-59
2022/08/30 03:21:59;;;;;;;8.73;6.25;;;14.90;99.90;;;;;;5060356;28;20052;-60
2022/08/30 03:24:25;;;;;;;12.77;7.85;;;14.90;99.90;;;;;;5049492;28;20449;-60
2022/08/30 03:26:52;;;;;;;11.88;7.43;;;14.90;99.90;;;;;;5049573;28;20060;-60
2022/08/30 03:29:18;;;;;;;10.88;7.60;;;15.00;99.90;;;;;;5050063;28;20086;-59
2022/08/30 03:31:44;;;;;;;12.30;7.15;;;14.90;99.90;;;;;;5065261;28;20143;-59
2022/08/30 03:34:10;;;;;;;9.63;6.95;;;14.90;99.90;;;;;;5050678;28;20044;-60
2022/08/30 03:36:37;;;;;;;8.77;5.85;;;14.90;99.90;;;;;;5069117;28;20486;-60
2022/08/30 03:39:04;;;;;;;8.88;5.47;;;14.90;99.90;;;;;;5062403;28;20052;-60
2022/08/30 03:41:31;;;;;;;8.80;5.40;;;14.90;99.90;;;;;;5033645;28;20395;-64
2022/08/30 03:43:57;;;;;;;10.73;5.53;;;14.90;99.90;;;;;;5059103;28;20064;-59
2022/08/30 03:46:23;;;;;;;10.13;5.43;;;14.90;99.90;;;;;;5050059;28;20076;-60
2022/08/30 03:48:49;;;;;;;6.20;4.35;;;14.90;99.90;;;;;;5050941;28;20080;-60
2022/08/30 03:51:14;;;;;;;8.02;5.07;;;14.80;99.90;;;;;;5057461;28;20066;-60
2022/08/30 03:53:40;;;;;;;8.32;4.85;;;14.80;99.90;;;;;;5039564;28;20352;-60
2022/08/30 03:56:06;;;;;;;11.60;5.07;;;14.80;99.90;;;;;;5049777;28;20049;-59
2022/08/30 03:58:33;;;;;;;8.38;4.70;;;14.80;99.90;;;;;;5050129;28;20091;-64
2022/08/30 04:00:58;;;;;;;7.32;4.60;;;14.80;99.90;;;;;;5057984;28;20155;-60
2022/08/30 04:03:25;;;;;;;7.03;5.03;;;14.80;99.90;;;;;;5049776;28;20164;-59
2022/08/30 04:05:55;;;;;;;9.77;4.97;;;14.80;99.90;;;;;;5048238;28;20045;-60
2022/08/30 04:08:21;;;;;;;7.85;4.80;;;14.70;99.90;;;;;;5049869;28;20502;-59
2022/08/30 04:10:47;;;;;;;8.38;5.28;;;14.70;99.90;;;;;;5055000;28;20037;-60
2022/08/30 04:13:14;;;;;;;7.97;4.88;;;14.60;99.90;;;;;;5052193;28;20471;-59
2022/08/30 04:15:40;;;;;;;9.30;4.75;;;14.60;99.90;;;;;;5052387;28;20460;-60
2022/08/30 04:18:06;;;;;;;5.25;4.15;;;14.60;99.90;;;;;;5052988;28;20068;-59
2022/08/30 04:20:32;;;;;;;6.38;3.88;;;14.50;99.90;;;;;;5057599;28;20047;-59
2022/08/30 04:22:58;;;;;;;8.13;4.30;;;14.50;99.90;;;;;;5053507;28;20107;-59
2022/08/30 04:25:24;;;;;;;7.13;4.18;;;14.50;99.90;;;;;;5053620;28;20049;-59
2022/08/30 04:27:50;;;;;;;6.90;3.92;;;14.40;99.90;;;;;;5052252;28;20452;-59
2022/08/30 04:30:16;;;;;;;6.25;3.60;;;14.40;99.90;;;;;;5054886;28;21741;-59
2022/08/30 04:32:43;;;;;;;6.07;3.65;;;14.40;99.90;;;;;;5053346;28;20417;-60
2022/08/30 04:35:09;;;;;;;5.80;4.00;;;14.30;99.90;;;;;;5053667;28;20403;-59
2022/08/30 04:37:36;;;;;;;8.40;4.22;;;14.30;99.90;;;;;;5053452;28;20060;-61
2022/08/30 04:40:04;;;;;;;5.85;4.00;;;14.30;99.90;;;;;;5053905;28;20203;-59
2022/08/30 04:42:32;;;;;;;6.00;4.03;;;14.30;99.90;;;;;;5054786;28;20120;-60
2022/08/30 04:45:00;;;;;;;6.00;4.20;;;14.20;99.90;;;;;;5052184;28;20049;-60
2022/08/30 04:47:26;;;;;;;7.03;4.07;;;14.20;99.90;;;;;;5052403;28;20048;-59
2022/08/30 04:49:52;;;;;;;4.70;3.70;;;14.20;99.90;;;;;;5052719;28;20044;-59
2022/08/30 04:52:18;;;;;;;8.57;4.13;;;14.10;99.90;;;;;;5053647;28;20048;-59
2022/08/30 04:54:44;;;;;;;5.88;3.90;;;14.10;99.90;;;;;;5051428;28;20127;-60
2022/08/30 04:57:10;;;;;;;7.85;3.90;;;14.10;99.90;;;;;;5051245;28;20444;-60
2022/08/30 04:59:37;;;;;;;6.32;4.05;;;14.10;99.90;;;;;;5053044;28;20102;-60
2022/08/30 05:02:03;;;;;;;6.07;3.60;;;14.10;99.90;;;;;;5055044;28;20044;-60
2022/08/30 05:04:29;;;;;;;6.90;4.05;;;14.10;99.90;;;;;;5061337;28;20101;-60
2022/08/30 05:06:55;;;;;;;6.68;3.58;;;14.10;99.90;;;;;;5053461;28;20039;-60
2022/08/30 05:09:21;;;;;;;7.32;3.63;;;14.10;99.90;;;;;;5053329;28;20115;-60
2022/08/30 05:11:47;;;;;;;5.85;3.80;;;14.10;99.90;;;;;;5034901;28;20049;-61
2022/08/30 05:14:13;;;;;;;6.32;3.90;;;14.00;99.90;;;;;;5054376;28;20056;-59
2022/08/30 05:16:40;;;;;;;8.32;4.03;;;14.00;99.90;;;;;;5052080;28;20171;-62
2022/08/30 05:19:06;;;;;;;11.38;4.85;;;14.00;99.90;;;;;;5035468;28;20060;-62
2022/08/30 05:21:33;;;;;;;7.25;4.30;;;14.00;99.90;;;;;;5051345;28;20049;-62
2022/08/30 05:23:59;;;;;;;7.38;4.20;;;14.00;99.90;;;;;;5018285;28;20045;-62
2022/08/30 05:26:31;;;;;;;6.60;3.85;;;14.00;99.90;;;;;;5043219;28;20456;-62
2022/08/30 05:28:57;;;;;;;6.47;4.03;;;14.00;99.90;;;;;;5050602;28;20148;-62
2022/08/30 05:31:32;;;;;;;7.32;4.20;;;14.00;99.90;;;;;;5051762;28;20037;-60
2022/08/30 05:33:58;;;;;;;7.95;4.35;;;14.10;99.90;;;;;;5058684;28;20379;-62
2022/08/30 05:36:26;;;;;;;5.25;4.03;;;14.20;99.90;;;;;;5035176;28;20040;-59
2022/08/30 05:38:53;;;;;;;6.82;3.80;;;14.30;99.90;;;;;;5050701;28;20040;-60
2022/08/30 05:41:22;;;;;;;6.50;3.50;;;14.60;99.90;;;;;;5050502;28;20388;-60
2022/08/30 05:43:48;;;;;;;7.00;3.33;;;15.20;99.90;;;;;;5052963;28;20049;-65
2022/08/30 05:46:18;;;;;;;7.75;3.78;;;16.10;99.90;;;;;;5049309;28;20564;-61
2022/08/30 05:48:45;;;;;;;6.68;3.65;;;16.90;99.90;;;;;;5050763;28;20449;-60
2022/08/30 05:51:12;;;;;;;5.32;3.33;;;17.80;99.90;;;;;;5050030;28;20049;-61
2022/08/30 05:53:39;;;;;;;5.70;3.13;;;18.70;99.90;;;;;;5050475;28;20124;-60
2022/08/30 05:56:08;;;;;;;8.10;3.30;;;19.40;99.90;;;;;;5053477;28;20462;-60
2022/08/30 05:58:34;;;;;;;6.53;3.08;;;20.20;99.90;;;;;;5051548;28;20190;-60
2022/08/30 06:01:01;;;;;;;6.55;2.72;;;20.90;99.90;;;;;;5050873;28;20468;-63
2022/08/30 06:03:27;;;;;;;6.40;2.88;;;21.50;99.90;;;;;;5034401;28;20045;-61
2022/08/30 06:05:52;;;;;;;4.85;3.05;;;22.10;99.90;;;;;;5052830;28;20040;-61
2022/08/30 06:08:18;;;;;;;3.85;2.60;;;22.60;99.90;;;;;;5051407;28;20410;-59
2022/08/30 06:10:44;;;;;;;5.10;2.60;;;23.10;99.90;;;;;;5050492;28;20037;-59
2022/08/30 06:13:11;;;;;;;7.18;3.30;;;23.40;99.70;;;;;;5051257;28;20044;-62
2022/08/30 06:15:37;;;;;;;7.05;2.80;;;23.80;99.80;;;;;;5053001;28;20132;-61
2022/08/30 06:18:03;;;;;;;6.15;2.63;;;24.10;98.70;;;;;;5051141;28;20131;-60
2022/08/30 06:20:28;;;;;;;4.57;2.20;;;23.90;98.00;;;;;;5050243;28;20406;-60
2022/08/30 06:22:54;;;;;;;5.15;2.35;;;23.50;98.20;;;;;;5049220;28;20048;-60
2022/08/30 06:25:20;;;;;;;4.72;2.33;;;23.00;98.50;;;;;;5050520;28;20494;-60
2022/08/30 06:27:46;;;;;;;5.97;2.50;;;22.40;99.40;;;;;;5063053;28;20126;-60
2022/08/30 06:30:12;;;;;;;4.00;2.58;;;22.10;99.90;;;;;;5049774;28;20167;-59
2022/08/30 06:32:38;;;;;;;4.50;2.50;;;21.80;99.90;;;;;;5051516;28;20059;-59
2022/08/30 06:35:06;;;;;;;8.45;2.50;;;21.80;99.90;;;;;;5049717;28;20084;-60
2022/08/30 06:37:32;;;;;;;4.53;2.35;;;21.60;99.90;;;;;;5058121;28;20064;-60
2022/08/30 06:40:00;;;;;;;4.03;2.20;;;21.40;99.90;;;;;;5050179;28;20049;-62
2022/08/30 06:42:30;;;;;;;4.90;2.25;;;21.40;99.90;;;;;;5050793;28;20102;-59
2022/08/30 06:44:57;;;;;;;5.57;2.20;;;21.70;99.90;;;;;;5051108;28;20068;-61
2022/08/30 06:47:23;;;;;;;5.30;2.10;;;22.20;99.90;;;;;;5052742;28;20041;-60
2022/08/30 06:49:48;;;;;;;3.30;2.00;;;22.70;99.90;;;;;;5017250;28;20040;-59
2022/08/30 06:52:14;;;;;;;4.50;2.00;;;22.90;99.90;;;;;;5049426;28;20053;-59
2022/08/30 06:54:40;;;;;;;3.70;2.00;;;22.70;99.90;;;;;;5051467;28;20063;-59
2022/08/30 06:57:06;;;;;;;7.20;2.30;;;22.20;99.90;;;;;;5049038;28;20127;-61
2022/08/30 06:59:32;;;;;;;5.10;2.13;;;21.50;99.90;;;;;;5051946;28;20045;-60
2022/08/30 07:01:58;;;;;;;4.20;2.00;;;21.10;99.90;;;;;;5032421;28;20057;-62
2022/08/30 07:04:24;;;;;;;4.45;1.90;;;20.70;99.90;;;;;;5050563;28;20045;-60
2022/08/30 07:06:50;;;;;;;5.40;1.77;;;20.40;99.90;;;;;;5050506;28;20060;-60
2022/08/30 07:09:16;;;;;;;3.17;1.83;;;20.20;99.90;;;;;;5056889;28;20048;-59
2022/08/30 07:11:42;;;;;;;5.40;1.85;;;19.90;99.90;;;;;;5033186;28;20056;-59
2022/08/30 07:14:08;;;;;;;5.70;1.88;;;19.70;99.90;;;;;;5032371;28;20514;-59
2022/08/30 07:16:34;;;;;;;5.40;1.58;;;19.60;99.90;;;;;;5032361;28;20040;-59
2022/08/30 07:19:01;;;;;;;6.05;1.83;;;19.50;99.90;;;;;;5032125;28;20048;-61
2022/08/30 07:21:37;;;;;;;5.20;1.77;;;19.50;99.90;;;;;;5029158;28;20045;-61
2022/08/30 07:24:05;;;;;;;4.45;1.75;;;19.60;99.90;;;;;;5048894;28;20048;-59
2022/08/30 07:26:34;;;;;;;4.03;1.77;;;19.60;99.90;;;;;;5048005;28;20449;-60
2022/08/30 07:29:01;;;;;;;7.07;1.70;;;19.60;99.90;;;;;;5048374;28;20052;-64
2022/08/30 07:31:27;;;;;;;5.53;1.60;;;19.60;99.90;;;;;;5046742;28;20053;-60
2022/08/30 07:33:53;;;;;;;3.33;1.90;;;19.70;99.90;;;;;;5041107;28;20278;-63
2022/08/30 07:36:20;;;;;;;6.68;1.90;;;19.80;99.90;;;;;;5033237;28;20060;-60
2022/08/30 07:38:48;;;;;;;5.28;1.95;;;19.80;99.90;;;;;;5045983;28;20481;-59
2022/08/30 07:41:34;;;;;;;2.75;1.50;;;20.10;99.90;;;;;;5045128;28;20045;-61
2022/08/30 07:44:00;;;;;;;4.07;1.85;;;21.10;99.90;;;;;;5042912;28;20049;-64
2022/08/30 07:46:26;;;;;;;3.45;1.52;;;22.30;99.90;;;;;;5027341;28;20083;-60
2022/08/30 07:48:54;;;;;;;5.35;1.58;;;23.20;99.50;;;;;;5028170;28;20501;-59
2022/08/30 07:51:23;;;;;;;3.25;1.60;;;24.20;98.40;;;;;;5044981;28;20233;-61
2022/08/30 07:53:49;;;;;;;3.53;1.40;;;24.90;97.90;;;;;;5043634;28;20049;-61
2022/08/30 07:56:15;;;;;;;3.03;1.55;;;25.20;96.40;;;;;;5045705;28;20489;-60
2022/08/30 07:58:42;;;;;;;3.80;1.50;;;25.90;94.80;;;;;;5036576;28;20249;-60
2022/08/30 08:01:09;;;;;;;3.45;1.40;;;26.70;94.30;;;;;;5046598;28;20502;-60
2022/08/30 08:03:38;;;;;;;4.10;1.65;;;26.80;93.10;;;;;;5046822;28;20049;-61
2022/08/30 08:06:04;;;;;;;4.65;1.30;;;27.30;93.60;;;;;;5041475;28;20041;-65
2022/08/30 08:08:30;;;;;;;3.17;1.50;;;27.80;93.80;;;;;;5043697;28;20140;-60
2022/08/30 08:10:56;;;;;;;4.13;1.40;;;28.30;92.20;;;;;;5043972;28;20056;-63
2022/08/30 08:13:22;;;;;;;3.97;1.52;;;28.60;91.30;;;;;;5044171;28;20537;-60
2022/08/30 08:15:48;;;;;;;4.43;1.60;;;29.00;91.60;;;;;;5046494;28;20812;-60
2022/08/30 08:18:14;;;;;;;3.13;1.17;;;29.10;90.80;;;;;;5044577;28;20051;-59
2022/08/30 08:20:40;;;;;;;4.10;1.67;;;29.50;88.60;;;;;;5047870;28;20406;-60
2022/08/30 08:23:06;;;;;;;2.88;1.50;;;29.90;88.50;;;;;;5044494;28;20049;-65
2022/08/30 08:25:32;;;;;;;4.97;1.55;;;29.80;85.00;;;;;;5046844;28;20055;-60
2022/08/30 08:27:58;;;;;;;3.72;1.40;;;29.60;85.70;;;;;;5044738;28;20049;-64
2022/08/30 08:30:24;;;;;;;3.40;1.60;;;29.50;85.60;;;;;;5035690;28;20122;-60
2022/08/30 08:32:50;;;;;;;2.35;1.35;;;29.20;84.80;;;;;;5044473;28;20033;-61
2022/08/30 08:35:17;;;;;;;3.70;1.50;;;29.20;86.20;;;;;;5045399;28;20494;-61
2022/08/30 08:37:42;;;;;;;5.07;1.58;;;29.30;86.20;;;;;;5032938;28;20072;-60
2022/08/30 08:40:14;;;;;;;2.83;1.40;;;28.90;85.20;;;;;;5040883;28;20506;-62
2022/08/30 08:42:50;;;;;;;2.75;1.50;;;27.90;85.70;;;;;;5042920;28;20093;-61
2022/08/30 08:45:31;;;;;;;3.03;1.30;;;27.40;87.00;;;;;;5042826;28;20056;-61
2022/08/30 08:48:09;;;;;;;3.58;1.63;;;27.20;86.50;;;;;;5043490;28;20056;-60
2022/08/30 08:50:35;;;;;;;5.10;1.60;;;27.20;87.00;;;;;;5042045;28;20041;-62
2022/08/30 08:53:34;;;;;;;2.30;1.20;;;27.80;87.00;;;;;;5047230;28;20119;-63
2022/08/30 08:56:04;;;;;;;2.97;1.50;;;28.40;87.10;;;;;;5035805;28;20684;-63
2022/08/30 08:58:50;;;;;;;4.10;1.63;;;29.00;86.20;;;;;;5044260;28;20095;-61
2022/08/30 09:01:20;;;;;;;4.30;1.73;;;29.00;85.00;;;;;;5040886;28;20068;-62
2022/08/30 09:03:46;;;;;;;3.40;1.50;;;28.70;84.60;;;;;;5045819;28;20128;-63
2022/08/30 09:06:27;;;;;;;3.30;1.33;;;28.30;85.20;;;;;;5043518;28;20037;-62
2022/08/30 09:08:54;;;;;;;2.50;1.50;;;28.20;84.50;;;;;;5048143;28;20055;-63
2022/08/30 09:11:24;;;;;;;4.20;1.40;;;28.30;86.20;;;;;;5028641;28;20044;-62
2022/08/30 09:13:50;;;;;;;2.90;1.30;;;28.80;85.90;;;;;;5045456;28;20270;-62
2022/08/30 09:16:50;;;;;;;1.77;1.15;;;29.30;86.50;;;;;;5029933;28;20513;-63
2022/08/30 09:19:55;;;;;;;2.88;1.30;;;29.60;84.70;;;;;;5073748;28;20558;-62
2022/08/30 09:22:41;;;;;;;3.58;1.35;;;29.60;83.20;;;;;;5072570;28;20486;-64
2022/08/30 09:25:13;;;;;;;5.38;1.98;;;28.90;82.70;;;;;;5046958;28;20045;-61
2022/08/30 09:27:40;;;;;;;3.33;1.55;;;28.50;82.00;;;;;;5046684;28;20048;-60
2022/08/30 09:30:22;;;;;;;2.95;1.40;;;28.50;82.70;;;;;;5044695;28;20055;-61
2022/08/30 09:33:16;;;;;;;4.80;1.48;;;28.10;81.30;;;;;;5037066;28;21272;-59
2022/08/30 09:35:48;;;;;;;3.58;1.33;;;27.10;81.90;;;;;;5044080;28;20064;-60
2022/08/30 09:38:21;;;;;;;3.83;1.40;;;26.20;82.30;;;;;;5046057;28;20103;-65
2022/08/30 09:40:50;;;;;;;2.47;1.30;;;25.50;83.20;;;;;;5040018;28;20053;-60
2022/08/30 09:43:16;;;;;;;2.95;1.40;;;25.10;85.20;;;;;;5049054;28;20052;-61
2022/08/30 09:46:04;;;;;;;4.43;1.35;;;24.80;85.00;;;;;;5045879;28;20052;-62
2022/08/30 09:48:42;;;;;;;2.78;1.33;;;24.60;85.10;;;;;;5046213;28;20076;-60
2022/08/30 09:51:14;;;;;;;3.33;1.48;;;24.30;87.30;;;;;;5049081;28;20091;-61
2022/08/30 09:53:48;;;;;;;2.97;1.38;;;24.00;87.80;;;;;;5050195;28;20142;-63
2022/08/30 09:56:28;;;;;;;2.85;1.40;;;23.90;88.10;;;;;;5042677;28;20060;-66
2022/08/30 09:59:03;;;;;;;2.30;1.38;;;23.80;87.90;;;;;;5048002;28;20045;-63
2022/08/30 10:01:35;;;;;;;3.97;1.60;;;23.80;87.90;;;;;;5042690;28;20123;-60
2022/08/30 10:04:19;;;;;;;4.03;1.42;;;23.90;87.20;;;;;;5049631;28;20596;-59
2022/08/30 10:07:05;;;;;;;2.38;1.40;;;24.00;86.20;;;;;;5048951;28;20060;-60
2022/08/30 10:09:49;;;;;;;4.53;1.48;;;23.90;87.00;;;;;;5078081;28;20131;-60
2022/08/30 10:12:21;;;;;;;3.22;1.33;;;23.90;88.50;;;;;;5048311;28;20076;-60
2022/08/30 10:14:55;;;;;;;3.55;1.40;;;24.00;87.60;;;;;;5046431;28;20590;-59
2022/08/30 10:17:49;;;;;;;3.90;1.50;;;24.00;88.00;;;;;;5046155;28;20060;-59
2022/08/30 10:20:56;;;;;;;2.10;1.20;;;24.20;88.30;;;;;;5060638;28;20441;-60
2022/08/30 10:23:30;;;;;;;3.47;1.65;;;24.30;85.90;;;;;;5043915;28;20068;-60
2022/08/30 10:25:59;;;;;;;;;;;24.20;86.90;;;;;;5043631;28;20052;-58
2022/08/30 10:28:36;;;;;;;2.25;1.10;;;24.00;87.60;;;;;;5047991;28;19952;-59
2022/08/30 10:31:25;;;;;;;2.60;1.38;;;23.90;88.20;;;;;;5047514;28;20110;-62
2022/08/30 10:33:54;;;;;;;2.58;1.15;;;23.70;88.50;;;;;;5050534;28;20060;-60
2022/08/30 10:36:38;;;;;;;2.40;1.50;;;23.60;89.00;;;;;;5051233;28;20116;-65
2022/08/30 10:39:06;;;;;;;;;;;23.60;88.80;;;;;;5050645;28;20037;-60
2022/08/30 10:41:39;;;;;;;1.88;1.20;;;23.40;88.80;;;;;;5050404;28;19927;-61
2022/08/30 10:44:21;;;;;;;4.35;1.42;;;23.20;88.70;;;;;;5049261;28;20414;-61
2022/08/30 10:47:05;;;;;;;2.95;1.20;;;23.20;89.60;;;;;;5051261;28;20037;-60
2022/08/30 10:49:37;;;;;;;2.40;1.30;;;23.40;89.10;;;;;;5049771;28;20040;-58
2022/08/30 10:52:18;;;;;;;3.53;1.42;;;23.50;88.40;;;;;;5050730;28;20521;-58
2022/08/30 10:54:53;;;;;;;3.90;1.40;;;23.40;89.10;;;;;;5045554;28;20081;-58
2022/08/30 10:57:19;;;;;;;2.90;1.27;;;23.50;89.50;;;;;;5060409;28;20490;-61
2022/08/30 11:00:15;;;;;;;2.85;1.35;;;23.50;89.60;;;;;;5048203;28;20045;-60
2022/08/30 11:03:02;;;;;;;3.38;1.25;;;23.40;89.30;;;;;;5040058;28;20088;-60
2022/08/30 11:06:00;;;;;;;3.05;1.30;;;23.40;89.80;;;;;;5039011;28;20048;-60
2022/08/30 11:08:32;;;;;;;3.40;1.33;;;23.40;89.40;;;;;;5050172;28;20047;-60
2022/08/30 11:11:33;;;;;;;2.28;1.30;;;23.20;90.00;;;;;;5049664;28;20118;-60
2022/08/30 11:14:02;;;;;;;2.03;1.17;;;23.40;89.30;;;;;;5044721;28;20564;-61
2022/08/30 11:16:37;;;;;;;3.90;1.45;;;23.40;88.80;;;;;;5040185;28;20510;-59
2022/08/30 11:19:17;;;;;;;3.00;1.35;;;23.40;88.50;;;;;;5049684;28;20490;-60
2022/08/30 11:21:44;;;;;;;4.20;1.40;;;23.30;87.90;;;;;;5047720;28;20109;-58
2022/08/30 11:24:55;;;;;;;2.45;1.45;;;23.30;88.70;;;;;;5048782;28;20087;-59
2022/08/30 11:27:41;;;;;;;4.18;1.30;;;23.40;88.10;;;;;;5038636;28;20433;-60
2022/08/30 11:30:25;;;;;;;4.65;1.50;;;23.50;87.60;;;;;;5040717;28;20045;-61
2022/08/30 11:33:27;;;;;;;3.05;1.38;;;23.50;87.70;;;;;;5046504;28;20045;-60
2022/08/30 11:35:53;;;;;;;2.47;1.40;;;23.50;88.20;;;;;;5039458;28;20064;-60
2022/08/30 11:38:24;;;;;;;2.90;1.45;;;23.60;87.80;;;;;;5048405;28;20045;-62
2022/08/30 11:40:54;;;;;;;2.90;1.23;;;23.60;87.70;;;;;;5045005;28;20148;-60
2022/08/30 11:43:45;;;;;;;3.42;1.60;;;23.60;87.50;;;;;;5046962;28;20414;-60
2022/08/30 11:46:26;;;;;;;6.13;1.67;;;23.40;88.00;;;;;;5047785;28;20045;-59
2022/08/30 11:48:53;;;;;;;5.13;1.40;;;23.40;88.30;;;;;;5047157;28;20445;-60
2022/08/30 11:51:33;;;;;;;3.72;1.45;;;23.20;88.80;;;;;;5033817;28;20132;-60
2022/08/30 11:54:11;;;;;;;3.97;1.58;;;23.10;89.00;;;;;;5045074;28;20057;-58
2022/08/30 11:56:57;;;;;;;5.53;1.90;;;22.90;89.90;;;;;;5043022;28;20511;-59
2022/08/30 11:59:41;;;;;;;3.03;1.40;;;22.90;90.50;;;;;;5049484;28;20106;-60
2022/08/30 12:02:07;;;;;;;2.67;1.42;;;23.10;90.40;;;;;;5038226;28;20109;-59
2022/08/30 12:04:45;;;;;;;3.38;1.52;;;23.20;90.70;;;;;;5048686;28;20473;-59
2022/08/30 12:07:50;;;;;;;2.70;1.48;;;23.30;90.10;;;;;;5044933;28;20167;-60
2022/08/30 12:10:35;;;;;;;3.63;1.20;;;23.40;90.50;;;;;;5046783;28;20048;-60
2022/08/30 12:13:01;;;;;;;2.63;1.17;;;23.70;89.10;;;;;;5046822;28;20107;-61
2022/08/30 12:15:57;;;;;;;2.03;1.33;;;23.80;88.60;;;;;;5031269;28;20049;-59
2022/08/30 12:18:32;;;;;;;2.58;1.40;;;23.80;88.50;;;;;;5044785;28;20063;-60
2022/08/30 12:21:12;;;;;;;5.07;1.77;;;23.60;88.50;;;;;;5047102;28;20060;-59
2022/08/30 12:23:47;;;;;;;3.33;1.30;;;23.60;89.00;;;;;;5047333;28;20384;-59
2022/08/30 12:26:30;;;;;;;4.07;1.40;;;23.60;89.30;;;;;;5047055;28;20118;-60
2022/08/30 12:29:24;;;;;;;3.08;1.55;;;23.70;89.70;;;;;;5044116;28;20057;-61
2022/08/30 12:32:17;;;;;;;3.67;1.52;;;23.60;90.10;;;;;;5034299;28;20502;-61
2022/08/30 12:34:43;;;;;;;3.42;1.58;;;23.60;90.20;;;;;;5054429;28;20055;-60
2022/08/30 12:37:26;;;;;;;3.35;1.48;;;23.60;90.20;;;;;;5058138;28;20037;-59
2022/08/30 12:40:18;;;;;;;3.85;1.60;;;23.50;90.30;;;;;;5032394;28;20147;-60
2022/08/30 12:42:56;;;;;;;4.60;1.55;;;23.40;90.20;;;;;;5048896;28;20118;-59
2022/08/30 12:45:26;;;;;;;2.10;1.38;;;23.40;90.00;;;;;;5051578;28;20052;-60
2022/08/30 12:48:04;;;;;;;4.10;1.40;;;23.40;90.20;;;;;;5044800;28;20049;-62
2022/08/30 12:50:35;;;;;;;2.72;1.40;;;23.30;89.50;;;;;;5050094;28;20081;-59
2022/08/30 12:53:08;;;;;;;2.47;1.40;;;23.30;89.60;;;;;;5050145;28;20061;-59
2022/08/30 12:55:50;;;;;;;3.17;1.43;;;23.30;90.10;;;;;;5053809;28;20427;-60
2022/08/30 12:58:15;;;;;;;5.45;1.80;;;23.50;90.40;;;;;;5050068;28;20049;-61
2022/08/30 13:00:44;;;;;;;3.67;1.70;;;23.40;90.20;;;;;;5049579;28;20048;-59
2022/08/30 13:03:22;;;;;;;2.53;1.27;;;23.30;90.30;;;;;;5032128;28;20563;-60
2022/08/30 13:05:48;;;;;;;5.10;1.67;;;23.30;90.40;;;;;;5048377;28;20044;-60
2022/08/30 13:08:36;;;;;;;2.35;1.40;;;23.30;90.00;;;;;;5048376;28;20514;-60